createdAt,value
2022-07-26T04:16:05.948Z,99928.38
2022-07-26T04:18:32.535Z,99929.31
2022-07-26T04:20:59.143Z,99930.88
2022-07-26T04:23:25.758Z,99938.88
2022-07-26T04:25:52.321Z,99935.59
2022-07-26T04:28:18.861Z,99943.72
2022-07-26T04:30:45.646Z,99936.44
2022-07-26T04:33:12.200Z,99937.16
2022-07-26T04:35:38.800Z,99940.31
2022-07-26T04:38:20.482Z,99944.66
2022-07-26T04:40:47.013Z,99946.56
2022-07-26T04:43:15.987Z,99941.88
2022-07-26T04:45:46.441Z,99942.25
2022-07-26T04:48:13.752Z,99940.66
2022-07-26T04:50:40.870Z,99950.97
2022-07-26T04:53:07.481Z,99947.09
2022-07-26T04:55:36.469Z,99952.28
2022-07-26T04:58:03.888Z,99951.88
2022-07-26T05:00:30.431Z,99958.41
2022-07-26T05:02:59.191Z,99957.09
2022-07-26T05:05:27.899Z,99955.91
2022-07-26T05:07:58.359Z,99954.66
2022-07-26T05:10:31.488Z,99957.75
2022-07-26T05:12:58.291Z,99957.09
2022-07-26T05:15:25.236Z,99959.53
2022-07-26T05:18:10.367Z,99955.41
2022-07-26T05:20:40.680Z,99959.28
2022-07-26T05:23:07.435Z,99964.41
2022-07-26T05:25:34.188Z,99961.47
2022-07-26T05:28:00.908Z,99964.16
2022-07-26T05:30:27.508Z,99967.47
2022-07-26T05:32:58.011Z,99967.59
2022-07-26T05:35:29.575Z,99971.69
2022-07-26T05:38:01.189Z,99974.03
2022-07-26T05:40:28.905Z,99971.91
2022-07-26T05:42:58.915Z,99970.28
2022-07-26T05:45:25.539Z,99970.75
2022-07-26T05:47:53.293Z,99976.28
2022-07-26T05:50:20.283Z,99973.13
2022-07-26T05:52:46.989Z,99966.97
2022-07-26T05:55:13.744Z,99970.75
2022-07-26T05:57:41.936Z,99970.84
2022-07-26T06:00:11.981Z,99967.16
2022-07-26T06:02:40.274Z,99961.97
2022-07-26T06:05:07.817Z,99972.78
2022-07-26T06:07:38.834Z,99970.50
2022-07-26T06:10:06.081Z,99980.03
2022-07-26T06:12:32.779Z,99974.75
2022-07-26T06:14:59.537Z,99976.56
2022-07-26T06:17:30.448Z,99979.94
2022-07-26T06:19:58.899Z,99980.31
2022-07-26T06:34:33.165Z,99983.44
2022-07-26T06:36:59.981Z,99990.66
2022-07-26T06:39:56.771Z,99991.41
2022-07-26T06:42:23.806Z,99994.59
2022-07-26T06:44:50.363Z,99986.81
2022-07-26T06:47:17.100Z,99986.72
2022-07-26T06:49:44.797Z,99983.03
2022-07-26T06:52:14.195Z,99993.00
2022-07-26T06:54:40.706Z,99983.03
2022-07-26T06:57:07.308Z,99989.97
2022-07-26T06:59:34.052Z,99993.50
2022-07-26T07:02:03.293Z,99993.81
2022-07-26T07:04:31.040Z,99994.75
2022-07-26T07:07:05.239Z,99999.69
2022-07-26T07:09:33.554Z,99987.34
2022-07-26T07:12:09.436Z,99990.47
2022-07-26T07:14:39.555Z,99983.44
2022-07-26T07:17:12.230Z,99990.88
2022-07-26T07:19:40.545Z,99988.19
2022-07-26T07:22:11.711Z,99986.28
2022-07-26T07:24:39.442Z,99986.06
2022-07-26T07:27:07.202Z,99986.56
2022-07-26T07:29:34.010Z,99992.56
2022-07-26T07:32:19.915Z,99987.38
2022-07-26T07:34:49.714Z,99988.44
2022-07-26T07:37:20.508Z,99980.06
2022-07-26T07:39:50.255Z,99988.31
2022-07-26T07:42:18.903Z,99995.44
2022-07-26T07:44:45.912Z,99995.91
2022-07-26T07:47:12.486Z,99995.53
2022-07-26T07:49:39.053Z,99988.91
2022-07-26T07:52:11.668Z,99991.53
2022-07-26T07:55:28.582Z,99982.88
2022-07-26T07:57:52.936Z,99988.81
2022-07-26T08:00:29.482Z,99994.56
2022-07-26T08:02:56.189Z,99985.75
2022-07-26T08:05:22.764Z,99994.03
2022-07-26T08:07:49.699Z,99987.84
2022-07-26T08:10:19.791Z,99983.09
2022-07-26T08:12:46.495Z,99988.59
2022-07-26T08:15:18.026Z,99996.56
2022-07-26T08:17:51.064Z,99985.22
2022-07-26T08:20:23.496Z,99993.47
2022-07-26T08:22:50.856Z,99995.69
2022-07-26T08:25:17.663Z,99998.19
2022-07-26T08:27:55.052Z,99995.22
2022-07-26T08:30:32.088Z,100002.69
2022-07-26T08:32:59.330Z,100002.84
2022-07-26T08:35:25.953Z,100003.66
2022-07-26T08:37:52.710Z,100007.13
2022-07-26T08:40:19.496Z,100004.81
2022-07-26T08:42:52.940Z,100004.47
2022-07-26T08:45:27.093Z,100007.31
2022-07-26T08:48:16.834Z,100011.28
2022-07-26T08:50:41.185Z,100015.44
2022-07-26T08:53:09.482Z,100018.94
2022-07-26T08:56:04.386Z,100011.72
2022-07-26T08:58:25.545Z,100008.69
2022-07-26T09:01:14.447Z,100015.97
2022-07-26T09:03:42.955Z,100012.34
2022-07-26T09:06:22.519Z,100022.28
2022-07-26T09:08:53.393Z,100009.69
2022-07-26T09:11:32.229Z,100015.53
2022-07-26T09:14:01.905Z,100026.66
2022-07-26T09:16:30.586Z,100028.84
2022-07-26T09:19:27.960Z,100037.63
2022-07-26T09:21:57.718Z,100028.44
2022-07-26T09:24:36.532Z,100022.81
2022-07-26T09:27:06.346Z,100032.88
2022-07-26T09:29:50.149Z,100023.50
2022-07-26T09:32:22.105Z,100032.16
2022-07-26T09:34:55.702Z,100025.19
2022-07-26T09:37:46.935Z,100018.91
2022-07-26T09:40:19.612Z,100014.34
2022-07-26T09:43:04.851Z,100019.66
2022-07-26T09:45:35.361Z,100014.34
2022-07-26T09:48:03.756Z,100025.66
2022-07-26T09:51:00.665Z,100028.59
2022-07-26T09:53:39.987Z,100027.34
2022-07-26T09:56:09.008Z,100023.25
2022-07-26T09:58:36.759Z,100042.47
2022-07-26T10:01:05.757Z,100029.84
2022-07-26T10:03:34.202Z,100040.72
2022-07-26T10:06:51.691Z,100043.44
2022-07-26T10:09:19.210Z,100039.72
2022-07-26T10:11:52.978Z,100040.06
2022-07-26T10:14:40.897Z,100037.84
2022-07-26T10:17:41.730Z,100044.28
2022-07-26T10:20:29.552Z,100048.38
2022-07-26T10:22:56.097Z,100037.13
2022-07-26T10:25:23.596Z,100032.63
2022-07-26T10:27:52.492Z,100034.72
2022-07-26T10:30:22.641Z,100028.81
2022-07-26T10:32:55.002Z,100038.00
2022-07-26T10:35:38.867Z,100040.75
2022-07-26T10:38:38.765Z,100049.59
2022-07-26T10:41:09.322Z,100057.94
2022-07-26T10:44:12.191Z,100056.63
2022-07-26T10:46:56.544Z,100039.59
2022-07-26T10:49:30.394Z,100037.34
2022-07-26T10:52:25.147Z,100031.81
2022-07-26T10:55:00.612Z,100025.13
2022-07-26T10:57:29.865Z,100040.38
2022-07-26T10:59:57.892Z,100036.19
2022-07-26T11:02:29.162Z,100044.28
2022-07-26T11:05:15.641Z,100039.19
2022-07-26T11:08:10.806Z,100043.09
2022-07-26T11:10:44.512Z,100037.56
2022-07-26T11:13:13.161Z,100022.88
2022-07-26T11:15:42.940Z,100019.38
2022-07-26T11:18:32.762Z,100012.72
2022-07-26T11:21:17.663Z,100014.25
2022-07-26T11:23:46.200Z,100017.03
2022-07-26T11:26:17.354Z,100020.53
2022-07-26T11:28:56.606Z,100017.53
2022-07-26T11:31:51.577Z,100034.66
2022-07-26T11:34:59.926Z,100035.22
2022-07-26T11:37:33.840Z,100036.19
2022-07-26T11:40:42.082Z,100029.84
2022-07-26T11:43:11.711Z,100021.88
2022-07-26T11:45:40.460Z,100025.88
2022-07-26T11:48:20.344Z,100022.94
2022-07-26T11:50:48.004Z,100032.47
2022-07-26T11:53:22.360Z,100040.16
2022-07-26T11:55:48.918Z,100038.94
2022-07-26T11:58:15.532Z,100031.34
2022-07-26T12:00:42.683Z,100043.91
2022-07-26T12:03:09.529Z,100042.28
2022-07-26T12:05:36.664Z,100042.06
2022-07-26T12:08:12.505Z,100035.50
2022-07-26T12:10:39.332Z,100029.06
2022-07-26T12:13:14.533Z,100037.09
2022-07-26T12:15:49.783Z,100025.22
2022-07-26T12:18:28.514Z,100023.41
2022-07-26T12:21:03.615Z,100028.50
2022-07-26T12:23:46.171Z,100019.63
2022-07-26T12:26:28.466Z,100026.59
2022-07-26T12:28:56.198Z,100017.09
2022-07-26T12:31:25.156Z,100024.50
2022-07-26T12:33:56.427Z,100021.38
2022-07-26T12:36:27.906Z,100027.25
2022-07-26T12:38:55.993Z,100020.66
2022-07-26T12:41:36.268Z,100019.66
2022-07-26T12:44:04.846Z,100011.38
2022-07-26T12:46:33.441Z,100024.56
2022-07-26T12:49:00.888Z,100022.47
2022-07-26T12:51:27.751Z,100022.25
2022-07-26T12:53:54.520Z,100013.53
2022-07-26T12:56:22.126Z,100018.81
2022-07-26T12:59:17.624Z,100026.00
2022-07-26T13:01:44.563Z,100018.25
2022-07-26T13:04:11.586Z,100013.91
2022-07-26T13:06:39.499Z,100019.53
2022-07-26T13:09:08.138Z,100015.59
2022-07-26T13:11:34.624Z,100017.78
2022-07-26T13:14:01.248Z,100018.78
2022-07-26T13:16:36.195Z,100027.78
2022-07-26T13:19:03.240Z,100010.84
2022-07-26T13:21:33.587Z,100005.50
2022-07-26T13:24:01.942Z,100002.28
2022-07-26T13:26:28.779Z,100003.97
2022-07-26T13:28:55.946Z,100000.84
2022-07-26T13:31:25.671Z,100004.88
2022-07-26T13:33:52.377Z,100002.78
2022-07-26T13:36:18.900Z,99995.19
2022-07-26T13:38:45.434Z,99991.56
2022-07-26T13:41:11.992Z,99989.72
2022-07-26T13:43:38.545Z,99993.28
2022-07-26T13:46:05.247Z,99988.19
2022-07-26T13:48:34.222Z,99994.25
2022-07-26T13:51:00.767Z,99982.09
2022-07-26T13:53:27.333Z,99988.66
2022-07-26T13:55:53.946Z,99988.19
2022-07-26T13:58:21.555Z,99981.44
2022-07-26T14:00:48.941Z,99989.16
2022-07-26T14:03:16.420Z,100001.13
2022-07-26T14:05:43.065Z,99983.84
2022-07-26T14:08:09.666Z,99997.31
2022-07-26T14:10:39.633Z,99984.25
2022-07-26T14:13:08.129Z,99984.72
2022-07-26T14:15:34.952Z,99987.38
2022-07-26T14:18:02.283Z,99987.91
2022-07-26T14:20:36.313Z,99987.91
2022-07-26T14:23:02.900Z,100000.78
2022-07-26T14:25:29.354Z,99992.09
2022-07-26T14:28:01.722Z,99991.00
2022-07-26T14:30:33.670Z,99999.72
2022-07-26T14:33:06.020Z,99992.69
2022-07-26T14:35:35.246Z,99990.84
2022-07-26T14:38:01.859Z,99989.03
2022-07-26T14:40:28.374Z,99986.31
2022-07-26T14:42:56.052Z,99991.03
2022-07-26T14:45:22.629Z,100000.28
2022-07-26T14:47:49.257Z,99990.97
2022-07-26T14:50:16.278Z,99979.78
2022-07-26T14:53:25.462Z,99982.59
2022-07-26T14:55:53.074Z,99988.19
2022-07-26T14:58:19.864Z,99987.50
2022-07-26T15:01:12.590Z,99985.13
2022-07-26T15:03:44.259Z,99981.75
2022-07-26T15:06:10.782Z,99983.28
2022-07-26T15:08:37.336Z,99974.22
2022-07-26T15:11:05.474Z,99981.72
2022-07-26T15:13:37.019Z,99987.19
2022-07-26T15:16:32.626Z,99973.28
2022-07-26T15:19:01.643Z,99980.13
2022-07-26T15:21:31.784Z,99979.91
2022-07-26T15:23:58.353Z,99981.56
2022-07-26T15:26:32.968Z,99974.13
2022-07-26T15:29:58.215Z,99973.25
2022-07-26T15:32:29.302Z,99957.28
2022-07-26T15:34:55.800Z,99966.03
2022-07-26T15:37:22.372Z,99958.06
2022-07-26T15:39:53.046Z,99964.75
2022-07-26T15:42:20.893Z,99964.56
2022-07-26T15:44:50.034Z,99970.44
2022-07-26T15:47:43.522Z,99965.66
2022-07-26T15:50:06.364Z,99966.81
2022-07-26T15:52:36.066Z,99970.22
2022-07-26T15:55:02.822Z,99964.13
2022-07-26T15:57:29.351Z,99965.09
2022-07-26T16:00:18.000Z,99967.56
2022-07-26T16:02:44.684Z,99959.25
2022-07-26T16:05:12.077Z,99958.22
2022-07-26T16:07:41.456Z,99958.63
2022-07-26T16:10:12.846Z,99958.63
2022-07-26T16:12:41.193Z,99960.31
2022-07-26T16:15:09.364Z,99950.66
2022-07-26T16:17:36.717Z,99953.69
2022-07-26T16:20:04.491Z,99952.44
2022-07-26T16:22:31.689Z,99949.63
2022-07-26T16:24:58.446Z,99958.59
2022-07-26T16:28:34.010Z,99966.16
2022-07-26T16:31:00.923Z,99954.63
2022-07-26T16:33:27.577Z,99952.66
2022-07-26T16:35:54.210Z,99953.75
2022-07-26T16:38:20.763Z,99944.47
2022-07-26T16:40:47.400Z,99947.13
2022-07-26T16:43:14.099Z,99950.47
2022-07-26T16:45:40.653Z,99941.72
2022-07-26T16:48:07.239Z,99952.56
2022-07-26T16:50:37.373Z,99949.22
2022-07-26T16:53:05.164Z,99947.44
2022-07-26T16:55:34.141Z,99946.38
2022-07-26T16:58:01.115Z,99950.78
2022-07-26T17:00:52.751Z,99947.75
2022-07-26T17:03:23.643Z,99952.78
2022-07-26T17:05:50.361Z,99956.25
2022-07-26T17:08:17.051Z,99955.09
2022-07-26T17:10:44.055Z,99957.06
2022-07-26T17:13:10.750Z,99957.56
2022-07-26T17:15:37.269Z,99959.34
2022-07-26T17:18:04.521Z,99959.59
2022-07-26T17:20:31.315Z,99955.00
2022-07-26T17:22:57.883Z,99965.69
2022-07-26T17:25:27.651Z,99951.47
2022-07-26T17:27:54.157Z,99955.38
2022-07-26T17:30:23.029Z,99958.38
2022-07-26T17:32:49.945Z,99960.44
2022-07-26T17:35:16.514Z,99953.00
2022-07-26T17:37:58.467Z,99952.41
2022-07-26T17:40:25.937Z,99949.53
2022-07-26T17:42:54.941Z,99958.34
2022-07-26T17:45:24.542Z,99956.72
2022-07-26T17:47:51.195Z,99961.03
2022-07-26T17:53:04.662Z,99964.84
2022-07-26T17:55:37.522Z,99965.97
2022-07-26T17:58:04.188Z,99964.00
2022-07-26T18:00:30.962Z,99970.59
2022-07-26T18:02:57.880Z,99969.53
2022-07-26T18:05:31.715Z,99980.75
2022-07-26T18:08:29.212Z,99976.69
2022-07-26T18:10:57.140Z,99977.81
2022-07-26T18:13:26.459Z,99976.94
2022-07-26T18:15:53.363Z,99985.31
2022-07-26T18:18:20.085Z,99983.66
2022-07-26T18:21:10.677Z,99993.44
2022-07-26T18:23:42.889Z,99981.38
2022-07-26T18:26:24.174Z,99980.34
2022-07-26T18:28:51.657Z,99984.13
2022-07-26T18:31:18.640Z,99981.47
2022-07-26T18:33:45.391Z,99986.69
2022-07-26T18:36:12.010Z,99979.63
2022-07-26T18:38:38.751Z,99984.44
2022-07-26T18:41:05.911Z,99978.25
2022-07-26T18:43:33.529Z,99985.22
2022-07-26T18:46:05.617Z,99983.47
2022-07-26T18:48:32.754Z,99981.31
2022-07-26T18:51:00.410Z,99982.41
2022-07-26T18:53:28.646Z,99981.94
2022-07-26T18:56:01.316Z,99983.38
2022-07-26T18:58:28.689Z,99983.84
2022-07-26T19:00:56.778Z,99987.63
2022-07-26T19:03:23.410Z,99993.31
2022-07-26T19:05:58.040Z,99987.34
2022-07-26T19:08:26.654Z,99991.38
2022-07-26T19:10:53.263Z,100002.19
2022-07-26T19:13:19.985Z,99997.28
2022-07-26T19:15:46.625Z,100006.91
2022-07-26T19:18:16.689Z,100002.81
2022-07-26T19:20:44.084Z,100006.81
2022-07-26T19:23:11.734Z,100011.84
2022-07-26T19:25:39.704Z,100017.00
2022-07-26T19:28:07.162Z,100014.44
2022-07-26T19:30:36.891Z,100020.38
2022-07-26T19:33:03.597Z,100019.81
2022-07-26T19:35:34.252Z,100019.06
2022-07-26T19:38:04.015Z,100026.31
2022-07-26T19:40:30.739Z,100028.88
2022-07-26T19:42:57.208Z,100033.22
2022-07-26T19:45:23.883Z,100033.72
2022-07-26T19:47:57.841Z,100038.06
2022-07-26T19:50:24.628Z,100036.13
2022-07-26T19:52:52.265Z,100039.31
2022-07-26T19:55:20.024Z,100046.66
2022-07-26T19:57:46.577Z,100044.19
2022-07-26T20:00:13.493Z,100048.41
2022-07-26T20:02:41.306Z,100056.59
2022-07-26T20:05:09.933Z,100056.78
2022-07-26T20:07:37.012Z,100059.97
2022-07-26T20:10:05.456Z,100060.94
2022-07-26T20:12:34.283Z,100064.59
2022-07-26T20:15:03.004Z,100066.75
2022-07-26T20:17:35.343Z,100080.50
2022-07-26T20:20:04.607Z,100072.13
2022-07-26T20:22:35.903Z,100068.56
2022-07-26T20:25:02.534Z,100073.16
2022-07-26T20:27:29.079Z,100077.47
2022-07-26T20:30:00.756Z,100072.91
2022-07-26T20:32:27.857Z,100076.59
2022-07-26T20:34:54.634Z,100083.00
2022-07-26T20:37:24.507Z,100082.59
2022-07-26T20:39:52.141Z,100093.75
2022-07-26T20:42:27.356Z,100100.56
2022-07-26T20:44:54.727Z,100095.72
2022-07-26T20:47:22.002Z,100092.34
2022-07-26T20:49:48.914Z,100096.59
2022-07-26T20:52:18.748Z,100101.72
2022-07-26T20:54:53.720Z,100107.78
2022-07-26T20:57:50.799Z,100113.13
2022-07-26T21:00:30.637Z,100112.16
2022-07-26T21:02:59.776Z,100120.41
2022-07-26T21:06:00.386Z,100113.41
2022-07-26T21:08:32.338Z,100113.06
2022-07-26T21:10:59.065Z,100117.44
2022-07-26T21:13:25.649Z,100117.81
2022-07-26T21:15:55.361Z,100124.19
2022-07-26T21:18:52.795Z,100121.31
2022-07-26T21:21:50.756Z,100117.34
2022-07-26T21:24:47.339Z,100118.00
2022-07-26T21:27:19.669Z,100124.78
2022-07-26T21:29:49.774Z,100130.94
2022-07-26T21:32:16.546Z,100136.84
2022-07-26T21:34:50.911Z,100133.22
2022-07-26T21:37:18.044Z,100132.41
2022-07-26T21:39:52.516Z,100130.25
2022-07-26T21:42:38.286Z,100138.00
2022-07-26T21:45:11.818Z,100138.94
2022-07-26T21:47:46.328Z,100137.69
2022-07-26T21:50:25.976Z,100145.50
2022-07-26T21:53:05.830Z,100153.53
2022-07-26T21:55:41.897Z,100149.38
2022-07-26T21:58:20.598Z,100149.56
